Isle aux Morts, Canada
Current Conditions -  °F | °C
As of 2:00 PM on Saturday 25 Oct 2014 (Local Time) from CWZB Reporting Station
Drizzle Drizzle  
Wind Chill: 43°   Ceiling: 1100
Heat Index: 49°   Visibility: 9mi
Dew Point: 45°   Wind: 14mph
Humidity: 87%   Direction: 80°E
Pressure: 29.42"   Gusts: NA
Location:  47.59°N, 58.97°W
Report Text: CWZB 251600Z AUTO 08012KT 9SM -DZ OVC011 09/07 A2942 RMK SLP963 T00920071 70067 WSI/SWOB
Loading
Personal Weather Stations






























Interactive Weather Map New forecast layout! Learn more

10-Day Weather Forecast

Advertisements
Track Severe Weather on mobile